Airfield :
LOGIN :

Register | Disclaimer

   EN    FR    IT 

 










Legend :    VFR   Marginal VFR   IFR   Intensive IFR   Very Intensive IFR
Visi :
Ceiling :
>= 8 km
>= 3000ft
5 to 8 km
1000 to 3000 ft
1500m to 5 km
500 to 1000 ft
800 to 1500m
200 to 500 ft
< 800m
< 200 ft
Symbols :   Thunderstorms  Fog  Heavy snow  Heavy precipitations  Wind > 20 kt
SIGMETs :     Misc.  Thunderstorms  Icing  Turbulence  Mountain Waves  Volcanic Ashes






- Airport Elevation : 665 ft
- IATA code : NOC


EIKN - Connaught / Knock- Ireland West

CURRENT METAR :
  • 161830Z 23018G30KT 9999 FEW018 FEW020CB BKN040 05/M02 Q0982 NOSIG

EXPIRED METARs :
  • 161800Z 23017G27KT 9999 FEW020CB SCT038 05/M01 Q0981 NOSIG
  • 161730Z 23016G26KT 190V270 9999 -SHRA FEW018 SCT020CB BKN037 05/M02 Q0981 NOSIG
  • 161700Z 23019KT 200V260 9999 FEW020CB SCT037 05/M01 Q0980 NOSIG
  • 161630Z 23024G37KT 210V270 9999 FEW018 SCT020CB BKN120 05/M00 Q0980 NOSIG
  • 161600Z 25021G36KT 9999 FEW010 SCT020CB 04/01 Q0980 NOSIG

TAF TAF EIKN
Valid from the 16 at 18:00 until the 17 at 18:00 UTC


161700Z 1618/1718 22020G30KT 9999 FEW030 BKN040
TEMPO 1618/1623 24027G47KT
TEMPO 1618/1702 5000 SHRA BKN012 SCT018CB
PROB40
TEMPO 1618/1620 3000 SHRAGS
PROB30
TEMPO 1618/1623 TSGS
BECMG 1700/1702 25015G26KT
TEMPO 1702/1718 26020G37KT -SHRA SCT018CB
PROB40
TEMPO 1712/1717 26025G40KT 4000 SHRAGS



MET'MAP, your aeronautical weather chart ! - Copyright ORBIFLY December 2007 - Disclaimer

ORBIFLY MET'MAP TEAM :

Programming & Development : Alexandra Zaïnal
Concept & original design : Baudouin d'Aumeries
Assistance for programming : Marc-Olivier Méhu
Technical & hardware support : Manuel Goepfert

Contact : metmap@orbifly.com




SOURCES & CREDITS :

   NOAA